Morse Mill, Missouri
Current Conditions -  °F | °C
As of 11:54 AM on Thursday 18 Dec 2014 (Local Time) from KSUS Reporting Station
Light Snow Light Snow  
Wind Chill: 25°   Ceiling: 800
Heat Index: 31°   Visibility: 1.5mi
Dew Point: 28°   Wind: 6mph
Humidity: 89%   Direction: 50°NE
Pressure: 30.26"   Gusts: NA
Location:  38.28°N, 90.65°W
Report Text: KSUS 181754Z 05005KT 1 1/2SM -SN BR OVC008 M01/M02 A3026 RMK AO2 SLPNO P0001 60007 T10061022 11006 21022 58012
Loading
Personal Weather Stations






























Interactive Weather Map New forecast layout! Learn more

10-Day Weather Forecast

Advertisements
Track Severe Weather on mobile